sensor_id;sensor_type;location;lat;lon;timestamp;P1;durP1;ratioP1;P2;durP2;ratioP2
47481;SDS011;33219;47.410;9.730;2022-11-20T00:00:56;3.95;;;2.42;;
47481;SDS011;33219;47.410;9.730;2022-11-20T00:03:23;3.75;;;2.05;;
47481;SDS011;33219;47.410;9.730;2022-11-20T00:05:51;4.40;;;2.12;;
47481;SDS011;33219;47.410;9.730;2022-11-20T00:08:19;4.53;;;2.52;;
47481;SDS011;33219;47.410;9.730;2022-11-20T00:10:47;3.50;;;2.35;;
47481;SDS011;33219;47.410;9.730;2022-11-20T00:13:14;4.47;;;2.17;;
47481;SDS011;33219;47.410;9.730;2022-11-20T00:15:42;3.87;;;2.00;;
47481;SDS011;33219;47.410;9.730;2022-11-20T00:18:09;3.92;;;2.00;;
47481;SDS011;33219;47.410;9.730;2022-11-20T00:20:37;3.90;;;1.90;;
47481;SDS011;33219;47.410;9.730;2022-11-20T00:23:05;4.35;;;2.15;;
47481;SDS011;33219;47.410;9.730;2022-11-20T00:25:35;4.30;;;2.10;;
47481;SDS011;33219;47.410;9.730;2022-11-20T00:28:03;4.87;;;2.35;;
47481;SDS011;33219;47.410;9.730;2022-11-20T00:30:30;2.58;;;1.82;;
47481;SDS011;33219;47.410;9.730;2022-11-20T00:32:58;3.20;;;1.98;;
47481;SDS011;33219;47.410;9.730;2022-11-20T00:35:25;6.50;;;2.67;;
47481;SDS011;33219;47.410;9.730;2022-11-20T00:37:53;3.27;;;2.08;;
47481;SDS011;33219;47.410;9.730;2022-11-20T00:40:20;3.08;;;1.90;;
47481;SDS011;33219;47.410;9.730;2022-11-20T00:42:48;5.25;;;1.85;;
47481;SDS011;33219;47.410;9.730;2022-11-20T00:45:15;6.35;;;2.00;;
47481;SDS011;33219;47.410;9.730;2022-11-20T00:47:43;3.45;;;1.90;;
47481;SDS011;33219;47.410;9.730;2022-11-20T00:50:11;5.67;;;2.00;;
47481;SDS011;33219;47.410;9.730;2022-11-20T00:52:41;3.72;;;1.92;;
47481;SDS011;33219;47.410;9.730;2022-11-20T00:55:08;5.60;;;1.90;;
47481;SDS011;33219;47.410;9.730;2022-11-20T00:57:36;4.65;;;2.30;;
47481;SDS011;33219;47.410;9.730;2022-11-20T01:00:04;3.37;;;1.62;;
47481;SDS011;33219;47.410;9.730;2022-11-20T01:02:32;3.08;;;1.95;;
47481;SDS011;33219;47.410;9.730;2022-11-20T01:04:59;3.10;;;1.87;;
47481;SDS011;33219;47.410;9.730;2022-11-20T01:07:27;2.60;;;1.80;;
47481;SDS011;33219;47.410;9.730;2022-11-20T01:09:55;3.20;;;1.75;;
47481;SDS011;33219;47.410;9.730;2022-11-20T01:12:23;2.65;;;1.70;;
47481;SDS011;33219;47.410;9.730;2022-11-20T01:14:50;2.67;;;1.80;;
47481;SDS011;33219;47.410;9.730;2022-11-20T01:17:18;5.00;;;2.02;;
47481;SDS011;33219;47.410;9.730;2022-11-20T01:19:48;4.10;;;2.15;;
47481;SDS011;33219;47.410;9.730;2022-11-20T01:22:17;3.30;;;2.00;;
47481;SDS011;33219;47.410;9.730;2022-11-20T01:24:45;2.95;;;1.80;;
47481;SDS011;33219;47.410;9.730;2022-11-20T01:27:12;3.55;;;1.77;;
47481;SDS011;33219;47.410;9.730;2022-11-20T01:29:40;2.55;;;1.70;;
47481;SDS011;33219;47.410;9.730;2022-11-20T01:32:07;3.20;;;1.90;;
47481;SDS011;33219;47.410;9.730;2022-11-20T01:34:35;3.02;;;1.80;;
47481;SDS011;33219;47.410;9.730;2022-11-20T01:37:03;3.42;;;1.70;;
47481;SDS011;33219;47.410;9.730;2022-11-20T01:39:30;3.17;;;1.80;;
47481;SDS011;33219;47.410;9.730;2022-11-20T01:41:58;3.95;;;1.90;;
47481;SDS011;33219;47.410;9.730;2022-11-20T01:44:56;3.95;;;2.22;;
47481;SDS011;33219;47.410;9.730;2022-11-20T01:47:32;3.65;;;2.10;;
47481;SDS011;33219;47.410;9.730;2022-11-20T01:50:06;5.25;;;2.35;;
47481;SDS011;33219;47.410;9.730;2022-11-20T01:52:36;4.17;;;2.50;;
47481;SDS011;33219;47.410;9.730;2022-11-20T01:55:13;5.95;;;2.98;;
47481;SDS011;33219;47.410;9.730;2022-11-20T01:57:44;5.05;;;2.75;;
47481;SDS011;33219;47.410;9.730;2022-11-20T02:00:15;5.70;;;2.80;;
47481;SDS011;33219;47.410;9.730;2022-11-20T02:02:53;4.72;;;2.90;;
47481;SDS011;33219;47.410;9.730;2022-11-20T02:05:25;7.33;;;3.08;;
47481;SDS011;33219;47.410;9.730;2022-11-20T02:07:57;5.45;;;3.12;;
47481;SDS011;33219;47.410;9.730;2022-11-20T02:10:26;7.05;;;2.42;;
47481;SDS011;33219;47.410;9.730;2022-11-20T02:12:54;3.47;;;2.17;;
47481;SDS011;33219;47.410;9.730;2022-11-20T02:15:40;6.08;;;2.20;;
47481;SDS011;33219;47.410;9.730;2022-11-20T02:18:08;5.40;;;2.30;;
47481;SDS011;33219;47.410;9.730;2022-11-20T02:20:37;3.45;;;1.92;;
47481;SDS011;33219;47.410;9.730;2022-11-20T02:25:37;3.65;;;1.90;;
47481;SDS011;33219;47.410;9.730;2022-11-20T02:28:05;4.03;;;2.52;;
47481;SDS011;33219;47.410;9.730;2022-11-20T02:30:33;3.60;;;2.52;;
47481;SDS011;33219;47.410;9.730;2022-11-20T02:33:01;4.75;;;2.77;;
47481;SDS011;33219;47.410;9.730;2022-11-20T02:38:00;4.75;;;2.47;;
47481;SDS011;33219;47.410;9.730;2022-11-20T02:40:29;3.30;;;2.00;;
47481;SDS011;33219;47.410;9.730;2022-11-20T02:42:56;4.10;;;2.20;;
47481;SDS011;33219;47.410;9.730;2022-11-20T02:45:24;3.50;;;2.05;;
47481;SDS011;33219;47.410;9.730;2022-11-20T02:47:52;3.25;;;1.90;;
47481;SDS011;33219;47.410;9.730;2022-11-20T02:50:20;4.87;;;2.08;;
47481;SDS011;33219;47.410;9.730;2022-11-20T02:52:47;3.12;;;2.30;;
47481;SDS011;33219;47.410;9.730;2022-11-20T02:55:15;3.22;;;2.20;;
47481;SDS011;33219;47.410;9.730;2022-11-20T02:57:43;2.85;;;2.00;;
47481;SDS011;33219;47.410;9.730;2022-11-20T03:00:10;2.67;;;2.05;;
47481;SDS011;33219;47.410;9.730;2022-11-20T03:02:38;6.12;;;2.50;;
47481;SDS011;33219;47.410;9.730;2022-11-20T03:05:06;3.42;;;2.40;;
47481;SDS011;33219;47.410;9.730;2022-11-20T03:07:34;4.00;;;2.35;;
47481;SDS011;33219;47.410;9.730;2022-11-20T03:10:01;4.25;;;2.37;;
47481;SDS011;33219;47.410;9.730;2022-11-20T03:12:29;4.33;;;2.87;;
47481;SDS011;33219;47.410;9.730;2022-11-20T03:14:57;4.30;;;2.77;;
47481;SDS011;33219;47.410;9.730;2022-11-20T03:17:24;4.60;;;2.70;;
47481;SDS011;33219;47.410;9.730;2022-11-20T03:19:52;4.97;;;3.05;;
47481;SDS011;33219;47.410;9.730;2022-11-20T03:22:19;6.28;;;3.60;;
47481;SDS011;33219;47.410;9.730;2022-11-20T03:24:47;5.30;;;3.00;;
47481;SDS011;33219;47.410;9.730;2022-11-20T03:27:15;4.60;;;2.60;;
47481;SDS011;33219;47.410;9.730;2022-11-20T03:29:42;6.55;;;3.15;;
47481;SDS011;33219;47.410;9.730;2022-11-20T03:32:10;5.95;;;2.80;;
47481;SDS011;33219;47.410;9.730;2022-11-20T03:34:37;4.12;;;2.72;;
47481;SDS011;33219;47.410;9.730;2022-11-20T03:37:05;3.77;;;2.65;;
47481;SDS011;33219;47.410;9.730;2022-11-20T03:39:33;4.65;;;2.70;;
47481;SDS011;33219;47.410;9.730;2022-11-20T03:42:01;4.67;;;2.40;;
47481;SDS011;33219;47.410;9.730;2022-11-20T03:44:30;4.80;;;2.70;;
47481;SDS011;33219;47.410;9.730;2022-11-20T03:46:57;3.80;;;2.47;;
47481;SDS011;33219;47.410;9.730;2022-11-20T03:49:25;4.47;;;2.30;;
47481;SDS011;33219;47.410;9.730;2022-11-20T03:51:52;3.67;;;2.37;;
47481;SDS011;33219;47.410;9.730;2022-11-20T03:54:20;4.47;;;2.35;;
47481;SDS011;33219;47.410;9.730;2022-11-20T03:56:47;4.03;;;2.27;;
47481;SDS011;33219;47.410;9.730;2022-11-20T03:59:15;5.45;;;2.55;;
47481;SDS011;33219;47.410;9.730;2022-11-20T04:01:42;3.42;;;2.37;;
47481;SDS011;33219;47.410;9.730;2022-11-20T04:04:10;3.35;;;2.10;;
47481;SDS011;33219;47.410;9.730;2022-11-20T04:06:37;5.15;;;2.80;;
47481;SDS011;33219;47.410;9.730;2022-11-20T04:09:05;4.10;;;2.50;;
47481;SDS011;33219;47.410;9.730;2022-11-20T04:11:34;4.50;;;2.60;;
47481;SDS011;33219;47.410;9.730;2022-11-20T04:14:04;3.52;;;2.10;;
47481;SDS011;33219;47.410;9.730;2022-11-20T04:16:34;3.47;;;2.15;;
47481;SDS011;33219;47.410;9.730;2022-11-20T04:19:03;5.22;;;2.45;;
47481;SDS011;33219;47.410;9.730;2022-11-20T04:21:32;7.87;;;2.62;;
47481;SDS011;33219;47.410;9.730;2022-11-20T04:24:00;4.22;;;2.40;;
47481;SDS011;33219;47.410;9.730;2022-11-20T04:26:28;4.78;;;2.90;;
47481;SDS011;33219;47.410;9.730;2022-11-20T04:28:57;4.72;;;2.77;;
47481;SDS011;33219;47.410;9.730;2022-11-20T04:31:28;5.15;;;3.05;;
47481;SDS011;33219;47.410;9.730;2022-11-20T04:34:00;6.10;;;3.33;;
47481;SDS011;33219;47.410;9.730;2022-11-20T04:36:30;5.15;;;2.70;;
47481;SDS011;33219;47.410;9.730;2022-11-20T04:38:59;3.37;;;2.30;;
47481;SDS011;33219;47.410;9.730;2022-11-20T04:41:29;3.05;;;2.10;;
47481;SDS011;33219;47.410;9.730;2022-11-20T04:43:58;3.00;;;2.30;;
47481;SDS011;33219;47.410;9.730;2022-11-20T04:46:32;5.17;;;2.20;;
47481;SDS011;33219;47.410;9.730;2022-11-20T04:49:02;3.98;;;2.10;;
47481;SDS011;33219;47.410;9.730;2022-11-20T04:51:30;3.65;;;2.10;;
47481;SDS011;33219;47.410;9.730;2022-11-20T04:53:57;4.05;;;1.98;;
47481;SDS011;33219;47.410;9.730;2022-11-20T04:56:25;4.08;;;2.30;;
47481;SDS011;33219;47.410;9.730;2022-11-20T04:58:52;2.62;;;1.80;;
47481;SDS011;33219;47.410;9.730;2022-11-20T05:01:21;3.10;;;2.10;;
47481;SDS011;33219;47.410;9.730;2022-11-20T05:03:50;3.40;;;2.10;;
47481;SDS011;33219;47.410;9.730;2022-11-20T05:06:22;3.00;;;2.20;;
47481;SDS011;33219;47.410;9.730;2022-11-20T05:08:50;2.98;;;1.80;;
47481;SDS011;33219;47.410;9.730;2022-11-20T05:11:19;3.25;;;2.00;;
47481;SDS011;33219;47.410;9.730;2022-11-20T05:13:48;2.75;;;1.52;;
47481;SDS011;33219;47.410;9.730;2022-11-20T05:16:22;2.55;;;1.77;;
47481;SDS011;33219;47.410;9.730;2022-11-20T05:18:46;7.72;;;2.15;;
47481;SDS011;33219;47.410;9.730;2022-11-20T05:21:15;3.25;;;2.22;;
47481;SDS011;33219;47.410;9.730;2022-11-20T05:23:43;3.85;;;2.90;;
47481;SDS011;33219;47.410;9.730;2022-11-20T05:26:13;3.60;;;2.80;;
47481;SDS011;33219;47.410;9.730;2022-11-20T05:28:42;3.12;;;2.22;;
47481;SDS011;33219;47.410;9.730;2022-11-20T05:31:11;4.08;;;2.50;;
47481;SDS011;33219;47.410;9.730;2022-11-20T05:33:41;4.30;;;2.40;;
47481;SDS011;33219;47.410;9.730;2022-11-20T05:36:10;2.47;;;1.82;;
47481;SDS011;33219;47.410;9.730;2022-11-20T05:38:39;2.70;;;1.80;;
47481;SDS011;33219;47.410;9.730;2022-11-20T05:41:14;4.05;;;2.17;;
47481;SDS011;33219;47.410;9.730;2022-11-20T05:43:38;2.92;;;1.60;;
47481;SDS011;33219;47.410;9.730;2022-11-20T05:46:08;2.12;;;1.60;;
47481;SDS011;33219;47.410;9.730;2022-11-20T05:48:37;2.10;;;1.70;;
47481;SDS011;33219;47.410;9.730;2022-11-20T05:51:08;3.27;;;2.00;;
47481;SDS011;33219;47.410;9.730;2022-11-20T05:53:37;3.50;;;2.17;;
47481;SDS011;33219;47.410;9.730;2022-11-20T05:56:05;2.58;;;1.67;;
47481;SDS011;33219;47.410;9.730;2022-11-20T05:58:37;4.00;;;1.82;;
47481;SDS011;33219;47.410;9.730;2022-11-20T06:01:06;2.45;;;1.70;;
47481;SDS011;33219;47.410;9.730;2022-11-20T06:03:41;2.25;;;1.72;;
47481;SDS011;33219;47.410;9.730;2022-11-20T06:06:11;3.42;;;1.72;;
47481;SDS011;33219;47.410;9.730;2022-11-20T06:08:40;4.55;;;1.55;;
47481;SDS011;33219;47.410;9.730;2022-11-20T06:11:08;2.35;;;1.60;;
47481;SDS011;33219;47.410;9.730;2022-11-20T06:13:38;1.92;;;1.70;;
47481;SDS011;33219;47.410;9.730;2022-11-20T06:16:06;1.57;;;1.30;;
47481;SDS011;33219;47.410;9.730;2022-11-20T06:18:33;2.92;;;1.57;;
47481;SDS011;33219;47.410;9.730;2022-11-20T06:21:02;3.12;;;1.62;;
47481;SDS011;33219;47.410;9.730;2022-11-20T06:23:32;2.22;;;1.30;;
47481;SDS011;33219;47.410;9.730;2022-11-20T06:26:01;1.75;;;1.22;;
47481;SDS011;33219;47.410;9.730;2022-11-20T06:28:30;2.25;;;1.55;;
47481;SDS011;33219;47.410;9.730;2022-11-20T06:30:58;2.75;;;1.30;;
47481;SDS011;33219;47.410;9.730;2022-11-20T06:33:26;3.92;;;1.70;;
47481;SDS011;33219;47.410;9.730;2022-11-20T06:35:57;3.00;;;1.90;;
47481;SDS011;33219;47.410;9.730;2022-11-20T06:38:26;2.85;;;1.55;;
47481;SDS011;33219;47.410;9.730;2022-11-20T06:40:54;1.67;;;1.40;;
47481;SDS011;33219;47.410;9.730;2022-11-20T06:43:23;3.15;;;1.52;;
47481;SDS011;33219;47.410;9.730;2022-11-20T06:45:59;2.50;;;1.50;;
47481;SDS011;33219;47.410;9.730;2022-11-20T06:50:52;2.15;;;1.50;;
47481;SDS011;33219;47.410;9.730;2022-11-20T06:53:19;3.27;;;1.60;;
47481;SDS011;33219;47.410;9.730;2022-11-20T06:55:48;2.58;;;1.50;;
47481;SDS011;33219;47.410;9.730;2022-11-20T06:58:16;2.65;;;1.55;;
47481;SDS011;33219;47.410;9.730;2022-11-20T07:00:44;2.45;;;1.50;;
47481;SDS011;33219;47.410;9.730;2022-11-20T07:03:12;5.60;;;1.72;;
47481;SDS011;33219;47.410;9.730;2022-11-20T07:05:45;5.22;;;1.60;;
47481;SDS011;33219;47.410;9.730;2022-11-20T07:08:10;2.72;;;1.82;;
47481;SDS011;33219;47.410;9.730;2022-11-20T07:10:38;2.83;;;1.40;;
47481;SDS011;33219;47.410;9.730;2022-11-20T07:13:06;2.45;;;1.75;;
47481;SDS011;33219;47.410;9.730;2022-11-20T07:15:33;3.80;;;1.60;;
47481;SDS011;33219;47.410;9.730;2022-11-20T07:18:01;2.40;;;1.50;;
47481;SDS011;33219;47.410;9.730;2022-11-20T07:20:28;1.90;;;1.50;;
47481;SDS011;33219;47.410;9.730;2022-11-20T07:22:56;1.98;;;1.40;;
47481;SDS011;33219;47.410;9.730;2022-11-20T07:25:25;3.90;;;2.12;;
47481;SDS011;33219;47.410;9.730;2022-11-20T07:27:59;4.37;;;2.42;;
47481;SDS011;33219;47.410;9.730;2022-11-20T07:30:28;7.17;;;4.58;;
47481;SDS011;33219;47.410;9.730;2022-11-20T07:32:56;9.15;;;5.87;;
47481;SDS011;33219;47.410;9.730;2022-11-20T07:35:24;11.68;;;7.55;;
47481;SDS011;33219;47.410;9.730;2022-11-20T07:37:52;8.45;;;5.22;;
47481;SDS011;33219;47.410;9.730;2022-11-20T07:40:19;7.20;;;4.60;;
47481;SDS011;33219;47.410;9.730;2022-11-20T07:42:50;7.35;;;4.45;;
47481;SDS011;33219;47.410;9.730;2022-11-20T07:45:19;5.10;;;4.08;;
47481;SDS011;33219;47.410;9.730;2022-11-20T07:47:48;4.95;;;3.80;;
47481;SDS011;33219;47.410;9.730;2022-11-20T07:50:15;6.10;;;3.62;;
47481;SDS011;33219;47.410;9.730;2022-11-20T07:52:43;6.12;;;4.17;;
47481;SDS011;33219;47.410;9.730;2022-11-20T07:55:11;5.08;;;3.85;;
47481;SDS011;33219;47.410;9.730;2022-11-20T07:57:39;5.17;;;4.00;;
47481;SDS011;33219;47.410;9.730;2022-11-20T08:00:07;5.87;;;4.10;;
47481;SDS011;33219;47.410;9.730;2022-11-20T08:02:37;5.22;;;3.20;;
47481;SDS011;33219;47.410;9.730;2022-11-20T08:05:05;5.22;;;3.42;;
47481;SDS011;33219;47.410;9.730;2022-11-20T08:07:37;3.15;;;1.87;;
47481;SDS011;33219;47.410;9.730;2022-11-20T08:10:06;4.78;;;2.10;;
47481;SDS011;33219;47.410;9.730;2022-11-20T08:12:35;2.55;;;1.70;;
47481;SDS011;33219;47.410;9.730;2022-11-20T08:15:20;2.77;;;1.80;;
47481;SDS011;33219;47.410;9.730;2022-11-20T08:17:49;3.10;;;1.70;;
47481;SDS011;33219;47.410;9.730;2022-11-20T08:20:17;4.15;;;2.17;;
47481;SDS011;33219;47.410;9.730;2022-11-20T08:22:44;15.78;;;8.40;;
47481;SDS011;33219;47.410;9.730;2022-11-20T08:25:12;6.60;;;3.70;;
47481;SDS011;33219;47.410;9.730;2022-11-20T08:27:39;4.78;;;2.42;;
47481;SDS011;33219;47.410;9.730;2022-11-20T08:30:07;3.60;;;2.50;;
47481;SDS011;33219;47.410;9.730;2022-11-20T08:32:35;4.00;;;2.70;;
47481;SDS011;33219;47.410;9.730;2022-11-20T08:35:03;4.35;;;2.37;;
47481;SDS011;33219;47.410;9.730;2022-11-20T08:37:31;4.62;;;3.12;;
47481;SDS011;33219;47.410;9.730;2022-11-20T08:39:58;8.25;;;5.45;;
47481;SDS011;33219;47.410;9.730;2022-11-20T08:42:26;12.07;;;6.97;;
47481;SDS011;33219;47.410;9.730;2022-11-20T08:44:53;10.18;;;6.37;;
47481;SDS011;33219;47.410;9.730;2022-11-20T08:47:21;8.80;;;6.45;;
47481;SDS011;33219;47.410;9.730;2022-11-20T08:49:49;11.95;;;7.75;;
47481;SDS011;33219;47.410;9.730;2022-11-20T08:52:16;18.35;;;12.18;;
47481;SDS011;33219;47.410;9.730;2022-11-20T08:54:44;14.33;;;8.98;;
47481;SDS011;33219;47.410;9.730;2022-11-20T08:57:12;11.40;;;7.80;;
47481;SDS011;33219;47.410;9.730;2022-11-20T08:59:39;12.35;;;7.03;;
47481;SDS011;33219;47.410;9.730;2022-11-20T09:02:07;8.23;;;6.55;;
47481;SDS011;33219;47.410;9.730;2022-11-20T09:04:35;9.48;;;6.62;;
47481;SDS011;33219;47.410;9.730;2022-11-20T09:07:02;9.88;;;7.42;;
47481;SDS011;33219;47.410;9.730;2022-11-20T09:09:30;8.15;;;6.03;;
47481;SDS011;33219;47.410;9.730;2022-11-20T09:11:58;9.38;;;7.53;;
47481;SDS011;33219;47.410;9.730;2022-11-20T09:14:26;10.30;;;7.40;;
47481;SDS011;33219;47.410;9.730;2022-11-20T09:16:55;9.40;;;7.08;;
47481;SDS011;33219;47.410;9.730;2022-11-20T09:19:23;10.85;;;7.58;;
47481;SDS011;33219;47.410;9.730;2022-11-20T09:21:51;10.45;;;7.65;;
47481;SDS011;33219;47.410;9.730;2022-11-20T09:24:19;8.48;;;7.03;;
47481;SDS011;33219;47.410;9.730;2022-11-20T09:26:47;9.63;;;6.65;;
47481;SDS011;33219;47.410;9.730;2022-11-20T09:29:14;8.53;;;6.08;;
47481;SDS011;33219;47.410;9.730;2022-11-20T09:31:42;5.58;;;3.62;;
47481;SDS011;33219;47.410;9.730;2022-11-20T09:34:09;6.33;;;3.05;;
47481;SDS011;33219;47.410;9.730;2022-11-20T09:36:37;9.68;;;5.75;;
47481;SDS011;33219;47.410;9.730;2022-11-20T09:39:04;15.20;;;9.28;;
47481;SDS011;33219;47.410;9.730;2022-11-20T09:44:37;10.68;;;6.40;;
47481;SDS011;33219;47.410;9.730;2022-11-20T09:55:00;9.90;;;6.97;;
47481;SDS011;33219;47.410;9.730;2022-11-20T09:57:34;11.55;;;8.48;;
47481;SDS011;33219;47.410;9.730;2022-11-20T10:00:06;12.03;;;7.80;;
47481;SDS011;33219;47.410;9.730;2022-11-20T10:05:23;6.78;;;4.97;;
47481;SDS011;33219;47.410;9.730;2022-11-20T10:08:19;6.17;;;5.00;;
47481;SDS011;33219;47.410;9.730;2022-11-20T10:10:56;6.65;;;5.03;;
47481;SDS011;33219;47.410;9.730;2022-11-20T10:13:33;6.85;;;5.03;;
47481;SDS011;33219;47.410;9.730;2022-11-20T10:19:00;7.90;;;4.70;;
47481;SDS011;33219;47.410;9.730;2022-11-20T10:30:12;7.50;;;5.05;;
47481;SDS011;33219;47.410;9.730;2022-11-20T10:32:43;6.80;;;5.30;;
47481;SDS011;33219;47.410;9.730;2022-11-20T10:35:26;5.78;;;4.17;;
47481;SDS011;33219;47.410;9.730;2022-11-20T10:38:21;6.58;;;4.00;;
47481;SDS011;33219;47.410;9.730;2022-11-20T10:40:57;5.80;;;3.98;;
47481;SDS011;33219;47.410;9.730;2022-11-20T10:43:48;6.58;;;3.60;;
47481;SDS011;33219;47.410;9.730;2022-11-20T10:46:24;5.22;;;3.20;;
47481;SDS011;33219;47.410;9.730;2022-11-20T10:48:54;4.28;;;2.72;;
47481;SDS011;33219;47.410;9.730;2022-11-20T10:54:22;4.53;;;2.50;;
47481;SDS011;33219;47.410;9.730;2022-11-20T10:57:03;5.50;;;2.22;;
47481;SDS011;33219;47.410;9.730;2022-11-20T11:02:23;2.95;;;2.05;;
47481;SDS011;33219;47.410;9.730;2022-11-20T11:04:53;4.92;;;3.58;;
47481;SDS011;33219;47.410;9.730;2022-11-20T11:07:22;6.65;;;4.03;;
47481;SDS011;33219;47.410;9.730;2022-11-20T11:09:54;5.00;;;3.65;;
47481;SDS011;33219;47.410;9.730;2022-11-20T11:12:27;5.65;;;4.22;;
47481;SDS011;33219;47.410;9.730;2022-11-20T11:14:56;4.20;;;3.58;;
47481;SDS011;33219;47.410;9.730;2022-11-20T11:17:31;5.75;;;3.70;;
47481;SDS011;33219;47.410;9.730;2022-11-20T11:20:05;6.70;;;3.65;;
47481;SDS011;33219;47.410;9.730;2022-11-20T11:22:35;4.80;;;3.30;;
47481;SDS011;33219;47.410;9.730;2022-11-20T11:25:04;4.03;;;2.77;;
47481;SDS011;33219;47.410;9.730;2022-11-20T11:27:33;3.72;;;2.77;;
47481;SDS011;33219;47.410;9.730;2022-11-20T11:30:11;3.50;;;2.60;;
47481;SDS011;33219;47.410;9.730;2022-11-20T11:32:39;3.42;;;2.33;;
47481;SDS011;33219;47.410;9.730;2022-11-20T11:35:18;3.90;;;2.60;;
47481;SDS011;33219;47.410;9.730;2022-11-20T11:37:46;4.55;;;2.35;;
47481;SDS011;33219;47.410;9.730;2022-11-20T11:40:15;2.98;;;2.22;;
47481;SDS011;33219;47.410;9.730;2022-11-20T11:42:54;2.85;;;1.75;;
47481;SDS011;33219;47.410;9.730;2022-11-20T11:45:29;2.80;;;2.10;;
47481;SDS011;33219;47.410;9.730;2022-11-20T11:47:57;3.70;;;1.87;;
47481;SDS011;33219;47.410;9.730;2022-11-20T11:50:27;3.00;;;1.98;;
47481;SDS011;33219;47.410;9.730;2022-11-20T11:53:09;2.90;;;1.92;;
47481;SDS011;33219;47.410;9.730;2022-11-20T11:58:52;3.87;;;2.00;;
47481;SDS011;33219;47.410;9.730;2022-11-20T12:06:56;2.60;;;1.77;;
47481;SDS011;33219;47.410;9.730;2022-11-20T12:09:41;3.05;;;1.80;;
47481;SDS011;33219;47.410;9.730;2022-11-20T12:12:10;2.70;;;1.77;;
47481;SDS011;33219;47.410;9.730;2022-11-20T12:14:40;4.40;;;2.00;;
47481;SDS011;33219;47.410;9.730;2022-11-20T12:17:11;3.05;;;1.80;;
47481;SDS011;33219;47.410;9.730;2022-11-20T12:19:40;2.30;;;1.80;;
47481;SDS011;33219;47.410;9.730;2022-11-20T12:22:19;3.65;;;2.12;;
47481;SDS011;33219;47.410;9.730;2022-11-20T12:30:23;3.33;;;2.08;;
47481;SDS011;33219;47.410;9.730;2022-11-20T12:35:34;3.62;;;2.30;;
47481;SDS011;33219;47.410;9.730;2022-11-20T12:44:19;3.52;;;2.20;;
47481;SDS011;33219;47.410;9.730;2022-11-20T12:47:22;4.53;;;2.40;;
47481;SDS011;33219;47.410;9.730;2022-11-20T12:52:32;3.67;;;2.12;;
47481;SDS011;33219;47.410;9.730;2022-11-20T13:00:17;2.77;;;1.98;;
47481;SDS011;33219;47.410;9.730;2022-11-20T13:03:00;3.22;;;2.20;;
47481;SDS011;33219;47.410;9.730;2022-11-20T13:05:41;2.33;;;1.57;;
47481;SDS011;33219;47.410;9.730;2022-11-20T13:08:21;3.90;;;2.42;;
47481;SDS011;33219;47.410;9.730;2022-11-20T13:16:14;4.25;;;2.20;;
47481;SDS011;33219;47.410;9.730;2022-11-20T13:18:44;3.40;;;2.08;;
47481;SDS011;33219;47.410;9.730;2022-11-20T13:21:15;3.15;;;2.20;;
47481;SDS011;33219;47.410;9.730;2022-11-20T13:23:45;4.40;;;2.17;;
47481;SDS011;33219;47.410;9.730;2022-11-20T13:26:20;3.95;;;2.50;;
47481;SDS011;33219;47.410;9.730;2022-11-20T13:29:02;3.15;;;2.20;;
47481;SDS011;33219;47.410;9.730;2022-11-20T13:31:38;4.42;;;2.40;;
47481;SDS011;33219;47.410;9.730;2022-11-20T13:34:11;4.15;;;2.22;;
47481;SDS011;33219;47.410;9.730;2022-11-20T13:36:49;3.90;;;2.10;;
47481;SDS011;33219;47.410;9.730;2022-11-20T13:39:28;4.92;;;2.40;;
47481;SDS011;33219;47.410;9.730;2022-11-20T13:42:00;3.90;;;2.30;;
47481;SDS011;33219;47.410;9.730;2022-11-20T13:44:30;3.70;;;2.22;;
47481;SDS011;33219;47.410;9.730;2022-11-20T13:47:20;2.87;;;1.98;;
47481;SDS011;33219;47.410;9.730;2022-11-20T13:49:47;2.75;;;1.80;;
47481;SDS011;33219;47.410;9.730;2022-11-20T13:52:27;3.00;;;1.90;;
47481;SDS011;33219;47.410;9.730;2022-11-20T14:00:31;4.12;;;2.00;;
47481;SDS011;33219;47.410;9.730;2022-11-20T14:05:40;4.15;;;1.60;;
47481;SDS011;33219;47.410;9.730;2022-11-20T14:08:23;2.90;;;1.75;;
47481;SDS011;33219;47.410;9.730;2022-11-20T14:10:47;2.37;;;1.52;;
47481;SDS011;33219;47.410;9.730;2022-11-20T14:13:18;3.00;;;1.65;;
47481;SDS011;33219;47.410;9.730;2022-11-20T14:15:47;2.92;;;1.50;;
47481;SDS011;33219;47.410;9.730;2022-11-20T14:18:20;4.03;;;2.33;;
47481;SDS011;33219;47.410;9.730;2022-11-20T14:20:48;4.17;;;2.17;;
47481;SDS011;33219;47.410;9.730;2022-11-20T14:23:28;3.83;;;1.90;;
47481;SDS011;33219;47.410;9.730;2022-11-20T14:25:56;2.37;;;1.32;;
47481;SDS011;33219;47.410;9.730;2022-11-20T14:28:25;2.67;;;1.60;;
47481;SDS011;33219;47.410;9.730;2022-11-20T14:30:55;2.60;;;1.80;;
47481;SDS011;33219;47.410;9.730;2022-11-20T14:33:25;2.87;;;1.50;;
47481;SDS011;33219;47.410;9.730;2022-11-20T14:35:54;2.05;;;1.55;;
47481;SDS011;33219;47.410;9.730;2022-11-20T14:38:24;2.72;;;1.82;;
47481;SDS011;33219;47.410;9.730;2022-11-20T14:41:05;2.77;;;1.80;;
47481;SDS011;33219;47.410;9.730;2022-11-20T14:43:34;2.65;;;1.72;;
47481;SDS011;33219;47.410;9.730;2022-11-20T14:46:08;3.42;;;1.95;;
47481;SDS011;33219;47.410;9.730;2022-11-20T14:48:44;3.33;;;2.05;;
47481;SDS011;33219;47.410;9.730;2022-11-20T14:51:23;3.72;;;2.00;;
47481;SDS011;33219;47.410;9.730;2022-11-20T14:54:11;3.30;;;1.95;;
47481;SDS011;33219;47.410;9.730;2022-11-20T14:56:38;3.62;;;2.00;;
47481;SDS011;33219;47.410;9.730;2022-11-20T14:59:05;5.17;;;2.20;;
47481;SDS011;33219;47.410;9.730;2022-11-20T15:01:35;3.02;;;1.80;;
47481;SDS011;33219;47.410;9.730;2022-11-20T15:04:07;3.98;;;1.80;;
47481;SDS011;33219;47.410;9.730;2022-11-20T15:06:37;3.85;;;1.80;;
47481;SDS011;33219;47.410;9.730;2022-11-20T15:09:12;2.98;;;1.90;;
47481;SDS011;33219;47.410;9.730;2022-11-20T15:11:40;3.72;;;2.12;;
47481;SDS011;33219;47.410;9.730;2022-11-20T15:14:11;4.15;;;2.40;;
47481;SDS011;33219;47.410;9.730;2022-11-20T15:16:38;3.77;;;2.27;;
47481;SDS011;33219;47.410;9.730;2022-11-20T15:19:10;4.72;;;2.50;;
47481;SDS011;33219;47.410;9.730;2022-11-20T15:21:37;5.42;;;2.35;;
47481;SDS011;33219;47.410;9.730;2022-11-20T15:24:08;3.90;;;2.15;;
47481;SDS011;33219;47.410;9.730;2022-11-20T15:26:35;3.58;;;2.10;;
47481;SDS011;33219;47.410;9.730;2022-11-20T15:29:13;4.37;;;2.20;;
47481;SDS011;33219;47.410;9.730;2022-11-20T15:31:46;4.47;;;2.15;;
47481;SDS011;33219;47.410;9.730;2022-11-20T15:34:16;3.95;;;2.20;;
47481;SDS011;33219;47.410;9.730;2022-11-20T15:36:44;3.40;;;2.10;;
47481;SDS011;33219;47.410;9.730;2022-11-20T15:39:11;4.10;;;2.33;;
47481;SDS011;33219;47.410;9.730;2022-11-20T15:41:39;2.98;;;1.87;;
47481;SDS011;33219;47.410;9.730;2022-11-20T15:44:06;3.72;;;2.00;;
47481;SDS011;33219;47.410;9.730;2022-11-20T15:46:36;5.22;;;2.05;;
47481;SDS011;33219;47.410;9.730;2022-11-20T15:49:10;3.27;;;2.25;;
47481;SDS011;33219;47.410;9.730;2022-11-20T15:51:38;4.25;;;2.30;;
47481;SDS011;33219;47.410;9.730;2022-11-20T15:54:12;3.83;;;2.00;;
47481;SDS011;33219;47.410;9.730;2022-11-20T15:56:43;3.17;;;2.00;;
47481;SDS011;33219;47.410;9.730;2022-11-20T15:59:11;3.12;;;1.90;;
47481;SDS011;33219;47.410;9.730;2022-11-20T16:01:40;3.40;;;2.30;;
47481;SDS011;33219;47.410;9.730;2022-11-20T16:04:14;4.92;;;2.98;;
47481;SDS011;33219;47.410;9.730;2022-11-20T16:06:39;4.05;;;2.62;;
47481;SDS011;33219;47.410;9.730;2022-11-20T16:09:07;3.25;;;1.85;;
47481;SDS011;33219;47.410;9.730;2022-11-20T16:11:35;4.15;;;1.95;;
47481;SDS011;33219;47.410;9.730;2022-11-20T16:14:03;3.37;;;1.87;;
47481;SDS011;33219;47.410;9.730;2022-11-20T16:16:49;2.17;;;1.57;;
47481;SDS011;33219;47.410;9.730;2022-11-20T16:19:18;3.10;;;2.00;;
47481;SDS011;33219;47.410;9.730;2022-11-20T16:21:49;3.70;;;1.60;;
47481;SDS011;33219;47.410;9.730;2022-11-20T16:24:17;1.80;;;1.40;;
47481;SDS011;33219;47.410;9.730;2022-11-20T16:26:45;4.00;;;1.72;;
47481;SDS011;33219;47.410;9.730;2022-11-20T16:29:14;3.17;;;1.77;;